sensor_id;sensor_type;location;lat;lon;timestamp;P1;durP1;ratioP1;P2;durP2;ratioP2
21305;SDS011;10812;51.838;5.838;2023-09-19T04:12:16;4.60;;;1.63;;
21305;SDS011;10812;51.838;5.838;2023-09-19T04:14:44;6.33;;;1.93;;
21305;SDS011;10812;51.838;5.838;2023-09-19T04:17:12;11.17;;;2.10;;
21305;SDS011;10812;51.838;5.838;2023-09-19T04:19:41;7.37;;;2.23;;
21305;SDS011;10812;51.838;5.838;2023-09-19T04:22:09;3.97;;;1.50;;
21305;SDS011;10812;51.838;5.838;2023-09-19T04:24:37;5.57;;;1.73;;
21305;SDS011;10812;51.838;5.838;2023-09-19T04:27:08;7.50;;;1.90;;
21305;SDS011;10812;51.838;5.838;2023-09-19T04:29:36;7.97;;;2.33;;
21305;SDS011;10812;51.838;5.838;2023-09-19T04:32:05;8.07;;;2.33;;
21305;SDS011;10812;51.838;5.838;2023-09-19T04:34:33;6.83;;;1.53;;
21305;SDS011;10812;51.838;5.838;2023-09-19T04:37:02;9.07;;;2.23;;
21305;SDS011;10812;51.838;5.838;2023-09-19T04:42:22;4.97;;;1.60;;
21305;SDS011;10812;51.838;5.838;2023-09-19T04:44:51;5.10;;;2.00;;
21305;SDS011;10812;51.838;5.838;2023-09-19T04:47:20;5.73;;;1.67;;
21305;SDS011;10812;51.838;5.838;2023-09-19T04:49:49;8.60;;;2.17;;
21305;SDS011;10812;51.838;5.838;2023-09-19T04:52:17;10.60;;;1.93;;
21305;SDS011;10812;51.838;5.838;2023-09-19T04:54:46;4.33;;;1.57;;
21305;SDS011;10812;51.838;5.838;2023-09-19T04:57:14;6.77;;;1.70;;
21305;SDS011;10812;51.838;5.838;2023-09-19T04:59:44;5.80;;;1.73;;
21305;SDS011;10812;51.838;5.838;2023-09-19T05:16:36;7.77;;;1.93;;
21305;SDS011;10812;51.838;5.838;2023-09-19T05:19:05;5.73;;;1.83;;
21305;SDS011;10812;51.838;5.838;2023-09-19T05:21:33;5.47;;;1.80;;
21305;SDS011;10812;51.838;5.838;2023-09-19T05:24:01;16.07;;;2.80;;
21305;SDS011;10812;51.838;5.838;2023-09-19T05:26:29;8.60;;;2.03;;
21305;SDS011;10812;51.838;5.838;2023-09-19T05:28:57;6.03;;;2.00;;
21305;SDS011;10812;51.838;5.838;2023-09-19T05:31:26;5.97;;;1.60;;
21305;SDS011;10812;51.838;5.838;2023-09-19T05:33:58;10.60;;;2.30;;
21305;SDS011;10812;51.838;5.838;2023-09-19T05:36:27;8.63;;;1.83;;
21305;SDS011;10812;51.838;5.838;2023-09-19T05:38:56;9.17;;;2.00;;
21305;SDS011;10812;51.838;5.838;2023-09-19T05:41:24;4.73;;;1.77;;
21305;SDS011;10812;51.838;5.838;2023-09-19T05:43:52;9.33;;;2.10;;
21305;SDS011;10812;51.838;5.838;2023-09-19T05:46:20;6.17;;;2.23;;
21305;SDS011;10812;51.838;5.838;2023-09-19T05:48:48;8.83;;;2.57;;
21305;SDS011;10812;51.838;5.838;2023-09-19T05:51:18;5.03;;;1.70;;
21305;SDS011;10812;51.838;5.838;2023-09-19T05:53:48;5.93;;;1.77;;
21305;SDS011;10812;51.838;5.838;2023-09-19T05:56:17;12.47;;;2.23;;
21305;SDS011;10812;51.838;5.838;2023-09-19T05:58:45;7.50;;;1.70;;
21305;SDS011;10812;51.838;5.838;2023-09-19T06:01:13;9.23;;;1.93;;
21305;SDS011;10812;51.838;5.838;2023-09-19T06:03:41;4.70;;;1.60;;
21305;SDS011;10812;51.838;5.838;2023-09-19T06:06:09;4.87;;;1.50;;
21305;SDS011;10812;51.838;5.838;2023-09-19T06:08:39;8.97;;;2.10;;
21305;SDS011;10812;51.838;5.838;2023-09-19T06:11:11;4.03;;;1.80;;
21305;SDS011;10812;51.838;5.838;2023-09-19T06:13:40;7.00;;;1.87;;
21305;SDS011;10812;51.838;5.838;2023-09-19T06:16:08;7.03;;;1.83;;
21305;SDS011;10812;51.838;5.838;2023-09-19T06:18:36;4.70;;;1.67;;
21305;SDS011;10812;51.838;5.838;2023-09-19T06:21:04;4.20;;;1.47;;
21305;SDS011;10812;51.838;5.838;2023-09-19T06:23:34;6.73;;;1.60;;
21305;SDS011;10812;51.838;5.838;2023-09-19T06:26:03;4.20;;;1.60;;
21305;SDS011;10812;51.838;5.838;2023-09-19T06:28:33;7.33;;;1.60;;
21305;SDS011;10812;51.838;5.838;2023-09-19T06:31:01;8.50;;;2.03;;
21305;SDS011;10812;51.838;5.838;2023-09-19T06:33:30;9.50;;;2.13;;
21305;SDS011;10812;51.838;5.838;2023-09-19T06:35:58;7.40;;;1.63;;
21305;SDS011;10812;51.838;5.838;2023-09-19T06:38:26;6.53;;;2.13;;
21305;SDS011;10812;51.838;5.838;2023-09-19T06:40:54;7.87;;;1.87;;
21305;SDS011;10812;51.838;5.838;2023-09-19T06:43:25;8.07;;;2.10;;
21305;SDS011;10812;51.838;5.838;2023-09-19T06:45:53;9.37;;;2.10;;
21305;SDS011;10812;51.838;5.838;2023-09-19T06:48:22;8.30;;;2.27;;
21305;SDS011;10812;51.838;5.838;2023-09-19T06:50:51;7.63;;;1.90;;
21305;SDS011;10812;51.838;5.838;2023-09-19T06:53:21;6.40;;;1.97;;
21305;SDS011;10812;51.838;5.838;2023-09-19T06:55:50;8.83;;;1.90;;
21305;SDS011;10812;51.838;5.838;2023-09-19T06:58:18;7.97;;;2.20;;
21305;SDS011;10812;51.838;5.838;2023-09-19T07:00:47;5.50;;;2.10;;
21305;SDS011;10812;51.838;5.838;2023-09-19T07:03:16;10.67;;;2.13;;
21305;SDS011;10812;51.838;5.838;2023-09-19T07:05:47;8.37;;;1.97;;
21305;SDS011;10812;51.838;5.838;2023-09-19T07:08:15;6.60;;;1.53;;
21305;SDS011;10812;51.838;5.838;2023-09-19T07:10:46;9.37;;;2.03;;
21305;SDS011;10812;51.838;5.838;2023-09-19T07:13:16;6.10;;;1.63;;
21305;SDS011;10812;51.838;5.838;2023-09-19T07:15:44;7.90;;;1.60;;
21305;SDS011;10812;51.838;5.838;2023-09-19T07:18:15;8.50;;;1.73;;
21305;SDS011;10812;51.838;5.838;2023-09-19T07:20:44;7.32;;;2.10;;
21305;SDS011;10812;51.838;5.838;2023-09-19T07:25:45;6.40;;;1.88;;
21305;SDS011;10812;51.838;5.838;2023-09-19T07:28:15;7.65;;;2.58;;
21305;SDS011;10812;51.838;5.838;2023-09-19T07:30:43;8.00;;;2.17;;
21305;SDS011;10812;51.838;5.838;2023-09-19T07:33:11;6.03;;;1.70;;
21305;SDS011;10812;51.838;5.838;2023-09-19T07:35:44;5.32;;;2.08;;
21305;SDS011;10812;51.838;5.838;2023-09-19T07:38:12;5.85;;;1.92;;
21305;SDS011;10812;51.838;5.838;2023-09-19T07:40:41;10.18;;;2.80;;
21305;SDS011;10812;51.838;5.838;2023-09-19T07:43:09;4.22;;;1.70;;
21305;SDS011;10812;51.838;5.838;2023-09-19T07:45:37;7.53;;;1.85;;
21305;SDS011;10812;51.838;5.838;2023-09-19T07:48:06;7.53;;;1.75;;
21305;SDS011;10812;51.838;5.838;2023-09-19T07:50:42;5.18;;;2.00;;
21305;SDS011;10812;51.838;5.838;2023-09-19T07:53:11;6.35;;;1.90;;
21305;SDS011;10812;51.838;5.838;2023-09-19T07:55:40;5.53;;;1.90;;
21305;SDS011;10812;51.838;5.838;2023-09-19T07:58:09;8.93;;;2.38;;
21305;SDS011;10812;51.838;5.838;2023-09-19T08:00:37;6.93;;;1.95;;
21305;SDS011;10812;51.838;5.838;2023-09-19T08:03:05;8.15;;;2.53;;
21305;SDS011;10812;51.838;5.838;2023-09-19T08:05:43;6.20;;;1.70;;
21305;SDS011;10812;51.838;5.838;2023-09-19T08:08:12;6.57;;;2.30;;
21305;SDS011;10812;51.838;5.838;2023-09-19T08:10:42;9.43;;;2.33;;
21305;SDS011;10812;51.838;5.838;2023-09-19T08:13:12;6.97;;;2.13;;
21305;SDS011;10812;51.838;5.838;2023-09-19T08:15:42;5.38;;;2.10;;
21305;SDS011;10812;51.838;5.838;2023-09-19T08:18:12;6.03;;;2.08;;
21305;SDS011;10812;51.838;5.838;2023-09-19T08:20:40;7.38;;;2.50;;
21305;SDS011;10812;51.838;5.838;2023-09-19T08:23:10;7.05;;;2.15;;
21305;SDS011;10812;51.838;5.838;2023-09-19T08:25:38;5.60;;;2.13;;
21305;SDS011;10812;51.838;5.838;2023-09-19T08:28:06;7.28;;;2.33;;
21305;SDS011;10812;51.838;5.838;2023-09-19T08:30:38;6.68;;;2.17;;
21305;SDS011;10812;51.838;5.838;2023-09-19T08:33:06;10.15;;;2.83;;
21305;SDS011;10812;51.838;5.838;2023-09-19T08:35:35;6.90;;;2.42;;
21305;SDS011;10812;51.838;5.838;2023-09-19T08:38:04;5.45;;;1.73;;
21305;SDS011;10812;51.838;5.838;2023-09-19T08:40:34;7.20;;;2.40;;
21305;SDS011;10812;51.838;5.838;2023-09-19T08:43:06;5.25;;;2.10;;
21305;SDS011;10812;51.838;5.838;2023-09-19T08:45:34;9.32;;;2.22;;
21305;SDS011;10812;51.838;5.838;2023-09-19T08:48:15;7.63;;;2.08;;
21305;SDS011;10812;51.838;5.838;2023-09-19T08:50:48;8.80;;;2.20;;
21305;SDS011;10812;51.838;5.838;2023-09-19T08:53:25;9.48;;;2.28;;
21305;SDS011;10812;51.838;5.838;2023-09-19T08:56:00;8.82;;;2.65;;
21305;SDS011;10812;51.838;5.838;2023-09-19T08:58:31;6.55;;;2.20;;
21305;SDS011;10812;51.838;5.838;2023-09-19T09:01:07;6.70;;;2.17;;
21305;SDS011;10812;51.838;5.838;2023-09-19T09:03:36;7.00;;;2.40;;
21305;SDS011;10812;51.838;5.838;2023-09-19T09:06:08;9.77;;;2.25;;
21305;SDS011;10812;51.838;5.838;2023-09-19T09:08:40;7.10;;;1.95;;
21305;SDS011;10812;51.838;5.838;2023-09-19T09:11:10;8.00;;;2.13;;
21305;SDS011;10812;51.838;5.838;2023-09-19T09:13:40;7.80;;;2.17;;
21305;SDS011;10812;51.838;5.838;2023-09-19T09:16:11;6.55;;;2.15;;
21305;SDS011;10812;51.838;5.838;2023-09-19T09:18:40;8.35;;;2.83;;
21305;SDS011;10812;51.838;5.838;2023-09-19T09:21:10;4.95;;;1.73;;
21305;SDS011;10812;51.838;5.838;2023-09-19T09:23:40;12.07;;;2.38;;
21305;SDS011;10812;51.838;5.838;2023-09-19T09:26:10;7.03;;;2.00;;
21305;SDS011;10812;51.838;5.838;2023-09-19T09:28:44;8.13;;;2.30;;
21305;SDS011;10812;51.838;5.838;2023-09-19T09:34:00;7.50;;;2.83;;
21305;SDS011;10812;51.838;5.838;2023-09-19T09:36:35;6.18;;;2.00;;
21305;SDS011;10812;51.838;5.838;2023-09-19T09:39:04;9.75;;;2.72;;
21305;SDS011;10812;51.838;5.838;2023-09-19T09:41:46;8.32;;;1.73;;
21305;SDS011;10812;51.838;5.838;2023-09-19T09:44:14;5.03;;;2.33;;
21305;SDS011;10812;51.838;5.838;2023-09-19T09:46:44;5.90;;;1.90;;
21305;SDS011;10812;51.838;5.838;2023-09-19T09:49:47;4.78;;;1.80;;
21305;SDS011;10812;51.838;5.838;2023-09-19T09:52:21;6.43;;;2.22;;
21305;SDS011;10812;51.838;5.838;2023-09-19T09:55:00;10.38;;;2.72;;
21305;SDS011;10812;51.838;5.838;2023-09-19T09:57:33;3.60;;;1.95;;
21305;SDS011;10812;51.838;5.838;2023-09-19T10:00:02;6.32;;;2.15;;
21305;SDS011;10812;51.838;5.838;2023-09-19T10:02:47;8.68;;;2.33;;
21305;SDS011;10812;51.838;5.838;2023-09-19T10:05:16;7.50;;;2.47;;
21305;SDS011;10812;51.838;5.838;2023-09-19T10:07:54;5.50;;;1.70;;
21305;SDS011;10812;51.838;5.838;2023-09-19T10:10:31;8.10;;;1.80;;
21305;SDS011;10812;51.838;5.838;2023-09-19T10:13:12;7.65;;;1.90;;
21305;SDS011;10812;51.838;5.838;2023-09-19T10:15:42;5.30;;;2.22;;
21305;SDS011;10812;51.838;5.838;2023-09-19T10:18:15;5.78;;;2.45;;
21305;SDS011;10812;51.838;5.838;2023-09-19T10:20:46;8.23;;;2.42;;
21305;SDS011;10812;51.838;5.838;2023-09-19T10:23:16;13.52;;;2.90;;
21305;SDS011;10812;51.838;5.838;2023-09-19T10:25:49;15.43;;;3.08;;
21305;SDS011;10812;51.838;5.838;2023-09-19T10:28:20;7.30;;;2.00;;
21305;SDS011;10812;51.838;5.838;2023-09-19T10:30:50;4.50;;;1.63;;
21305;SDS011;10812;51.838;5.838;2023-09-19T10:33:20;8.10;;;2.35;;
21305;SDS011;10812;51.838;5.838;2023-09-19T10:35:50;7.95;;;1.92;;
21305;SDS011;10812;51.838;5.838;2023-09-19T10:38:19;9.23;;;2.45;;
21305;SDS011;10812;51.838;5.838;2023-09-19T10:40:50;4.22;;;2.10;;
21305;SDS011;10812;51.838;5.838;2023-09-19T10:43:21;4.88;;;1.85;;
21305;SDS011;10812;51.838;5.838;2023-09-19T10:46:02;10.63;;;2.22;;
21305;SDS011;10812;51.838;5.838;2023-09-19T10:48:32;7.18;;;2.40;;
21305;SDS011;10812;51.838;5.838;2023-09-19T10:51:02;6.28;;;2.28;;
21305;SDS011;10812;51.838;5.838;2023-09-19T10:53:39;8.65;;;1.80;;
21305;SDS011;10812;51.838;5.838;2023-09-19T10:56:10;5.70;;;1.63;;
21305;SDS011;10812;51.838;5.838;2023-09-19T10:58:46;5.68;;;1.67;;
21305;SDS011;10812;51.838;5.838;2023-09-19T11:01:15;5.65;;;1.77;;
21305;SDS011;10812;51.838;5.838;2023-09-19T11:03:44;7.82;;;2.03;;
21305;SDS011;10812;51.838;5.838;2023-09-19T11:06:16;3.85;;;1.50;;
21305;SDS011;10812;51.838;5.838;2023-09-19T11:08:52;6.55;;;1.67;;
21305;SDS011;10812;51.838;5.838;2023-09-19T11:14:15;5.50;;;2.10;;
21305;SDS011;10812;51.838;5.838;2023-09-19T11:20:15;5.82;;;1.70;;
21305;SDS011;10812;51.838;5.838;2023-09-19T11:25:57;6.40;;;1.60;;
21305;SDS011;10812;51.838;5.838;2023-09-19T11:28:28;3.55;;;1.63;;
21305;SDS011;10812;51.838;5.838;2023-09-19T11:34:40;5.50;;;1.80;;
21305;SDS011;10812;51.838;5.838;2023-09-19T11:40:52;6.05;;;2.05;;
21305;SDS011;10812;51.838;5.838;2023-09-19T11:46:57;5.70;;;1.52;;
21305;SDS011;10812;51.838;5.838;2023-09-19T11:49:26;4.72;;;1.55;;
21305;SDS011;10812;51.838;5.838;2023-09-19T11:51:59;4.75;;;1.65;;
21305;SDS011;10812;51.838;5.838;2023-09-19T11:54:32;4.22;;;1.38;;
21305;SDS011;10812;51.838;5.838;2023-09-19T11:57:00;4.00;;;1.73;;
21305;SDS011;10812;51.838;5.838;2023-09-19T11:59:29;4.90;;;1.50;;
21305;SDS011;10812;51.838;5.838;2023-09-19T12:02:00;3.00;;;1.33;;
21305;SDS011;10812;51.838;5.838;2023-09-19T12:04:35;4.32;;;1.30;;
21305;SDS011;10812;51.838;5.838;2023-09-19T12:07:07;5.28;;;1.42;;
21305;SDS011;10812;51.838;5.838;2023-09-19T12:09:42;5.85;;;1.90;;
21305;SDS011;10812;51.838;5.838;2023-09-19T12:12:19;6.45;;;1.60;;
21305;SDS011;10812;51.838;5.838;2023-09-19T12:14:47;2.70;;;1.35;;
21305;SDS011;10812;51.838;5.838;2023-09-19T12:17:16;3.47;;;1.10;;
21305;SDS011;10812;51.838;5.838;2023-09-19T12:19:52;3.75;;;1.35;;
21305;SDS011;10812;51.838;5.838;2023-09-19T12:22:22;3.95;;;1.60;;
21305;SDS011;10812;51.838;5.838;2023-09-19T12:24:51;3.15;;;1.17;;
21305;SDS011;10812;51.838;5.838;2023-09-19T12:27:20;5.10;;;1.52;;
21305;SDS011;10812;51.838;5.838;2023-09-19T12:29:49;2.25;;;1.15;;
21305;SDS011;10812;51.838;5.838;2023-09-19T12:32:33;5.38;;;1.58;;
21305;SDS011;10812;51.838;5.838;2023-09-19T12:35:02;3.80;;;1.42;;
21305;SDS011;10812;51.838;5.838;2023-09-19T12:37:35;4.47;;;1.63;;
21305;SDS011;10812;51.838;5.838;2023-09-19T12:40:05;3.97;;;0.90;;
21305;SDS011;10812;51.838;5.838;2023-09-19T12:42:54;3.13;;;1.60;;
21305;SDS011;10812;51.838;5.838;2023-09-19T12:45:24;2.70;;;1.15;;
21305;SDS011;10812;51.838;5.838;2023-09-19T12:51:01;3.28;;;0.90;;
21305;SDS011;10812;51.838;5.838;2023-09-19T12:53:34;2.47;;;1.00;;
21305;SDS011;10812;51.838;5.838;2023-09-19T12:56:08;3.90;;;1.05;;
21305;SDS011;10812;51.838;5.838;2023-09-19T12:58:47;2.15;;;1.10;;
21305;SDS011;10812;51.838;5.838;2023-09-19T13:01:16;2.00;;;1.10;;
21305;SDS011;10812;51.838;5.838;2023-09-19T13:03:44;4.97;;;1.60;;
21305;SDS011;10812;51.838;5.838;2023-09-19T13:06:13;5.07;;;1.50;;
21305;SDS011;10812;51.838;5.838;2023-09-19T13:08:44;2.60;;;0.98;;
21305;SDS011;10812;51.838;5.838;2023-09-19T13:11:20;3.13;;;1.00;;
21305;SDS011;10812;51.838;5.838;2023-09-19T13:13:49;3.53;;;1.10;;
21305;SDS011;10812;51.838;5.838;2023-09-19T13:16:52;3.53;;;1.10;;
21305;SDS011;10812;51.838;5.838;2023-09-19T13:19:39;5.63;;;1.40;;
21305;SDS011;10812;51.838;5.838;2023-09-19T13:25:14;2.67;;;0.82;;
21305;SDS011;10812;51.838;5.838;2023-09-19T13:27:45;3.28;;;0.82;;
21305;SDS011;10812;51.838;5.838;2023-09-19T13:30:14;0.95;;;0.70;;
21305;SDS011;10812;51.838;5.838;2023-09-19T13:32:42;3.22;;;1.00;;
21305;SDS011;10812;51.838;5.838;2023-09-19T13:35:11;4.40;;;0.82;;
21305;SDS011;10812;51.838;5.838;2023-09-19T13:37:40;3.80;;;0.90;;
21305;SDS011;10812;51.838;5.838;2023-09-19T13:40:10;2.47;;;0.90;;
21305;SDS011;10812;51.838;5.838;2023-09-19T13:42:41;3.83;;;1.38;;
21305;SDS011;10812;51.838;5.838;2023-09-19T13:45:10;3.95;;;0.98;;
21305;SDS011;10812;51.838;5.838;2023-09-19T13:47:42;3.92;;;0.63;;
21305;SDS011;10812;51.838;5.838;2023-09-19T13:50:10;2.90;;;1.00;;
21305;SDS011;10812;51.838;5.838;2023-09-19T13:52:38;1.20;;;0.75;;
21305;SDS011;10812;51.838;5.838;2023-09-19T13:55:07;2.20;;;0.75;;
21305;SDS011;10812;51.838;5.838;2023-09-19T13:57:36;2.33;;;0.82;;
21305;SDS011;10812;51.838;5.838;2023-09-19T14:00:06;5.60;;;0.70;;
21305;SDS011;10812;51.838;5.838;2023-09-19T14:02:36;4.03;;;1.10;;
21305;SDS011;10812;51.838;5.838;2023-09-19T14:05:06;1.67;;;0.60;;
21305;SDS011;10812;51.838;5.838;2023-09-19T14:07:34;2.22;;;0.93;;
21305;SDS011;10812;51.838;5.838;2023-09-19T14:10:03;4.43;;;1.02;;
21305;SDS011;10812;51.838;5.838;2023-09-19T14:12:34;3.25;;;1.15;;
21305;SDS011;10812;51.838;5.838;2023-09-19T14:15:02;2.97;;;0.90;;
21305;SDS011;10812;51.838;5.838;2023-09-19T14:17:32;3.25;;;0.85;;
21305;SDS011;10812;51.838;5.838;2023-09-19T14:20:00;5.00;;;1.20;;
21305;SDS011;10812;51.838;5.838;2023-09-19T14:22:28;3.72;;;1.20;;
21305;SDS011;10812;51.838;5.838;2023-09-19T14:24:58;1.80;;;0.82;;
21305;SDS011;10812;51.838;5.838;2023-09-19T14:27:26;2.90;;;0.93;;
21305;SDS011;10812;51.838;5.838;2023-09-19T14:29:54;2.65;;;1.02;;
21305;SDS011;10812;51.838;5.838;2023-09-19T14:32:23;2.25;;;1.13;;
21305;SDS011;10812;51.838;5.838;2023-09-19T14:34:52;2.72;;;1.20;;
21305;SDS011;10812;51.838;5.838;2023-09-19T14:37:20;3.33;;;0.88;;
21305;SDS011;10812;51.838;5.838;2023-09-19T14:39:48;5.82;;;1.10;;
21305;SDS011;10812;51.838;5.838;2023-09-19T14:42:16;3.33;;;1.02;;
21305;SDS011;10812;51.838;5.838;2023-09-19T14:44:44;3.42;;;0.70;;
21305;SDS011;10812;51.838;5.838;2023-09-19T14:47:13;2.78;;;1.00;;
21305;SDS011;10812;51.838;5.838;2023-09-19T14:49:43;2.03;;;1.00;;
21305;SDS011;10812;51.838;5.838;2023-09-19T14:52:12;2.47;;;0.80;;
21305;SDS011;10812;51.838;5.838;2023-09-19T14:54:42;1.63;;;0.85;;
21305;SDS011;10812;51.838;5.838;2023-09-19T14:57:10;4.53;;;0.90;;
21305;SDS011;10812;51.838;5.838;2023-09-19T14:59:40;6.13;;;1.23;;
21305;SDS011;10812;51.838;5.838;2023-09-19T15:02:08;3.65;;;1.20;;
21305;SDS011;10812;51.838;5.838;2023-09-19T15:04:36;2.35;;;1.00;;
21305;SDS011;10812;51.838;5.838;2023-09-19T15:07:07;1.95;;;0.80;;
21305;SDS011;10812;51.838;5.838;2023-09-19T15:09:37;2.90;;;1.13;;
21305;SDS011;10812;51.838;5.838;2023-09-19T15:12:05;5.32;;;1.30;;
21305;SDS011;10812;51.838;5.838;2023-09-19T15:14:33;1.20;;;0.60;;
21305;SDS011;10812;51.838;5.838;2023-09-19T15:17:02;5.53;;;1.63;;
21305;SDS011;10812;51.838;5.838;2023-09-19T15:19:31;2.60;;;1.02;;
21305;SDS011;10812;51.838;5.838;2023-09-19T15:21:59;2.58;;;1.35;;
21305;SDS011;10812;51.838;5.838;2023-09-19T15:24:27;3.25;;;0.88;;
21305;SDS011;10812;51.838;5.838;2023-09-19T15:26:57;2.83;;;0.90;;
21305;SDS011;10812;51.838;5.838;2023-09-19T15:29:25;4.97;;;1.10;;
21305;SDS011;10812;51.838;5.838;2023-09-19T15:31:54;2.60;;;1.10;;
21305;SDS011;10812;51.838;5.838;2023-09-19T15:34:25;2.05;;;0.80;;
21305;SDS011;10812;51.838;5.838;2023-09-19T15:36:53;3.30;;;1.25;;
21305;SDS011;10812;51.838;5.838;2023-09-19T15:39:21;1.92;;;0.90;;
21305;SDS011;10812;51.838;5.838;2023-09-19T15:41:49;4.78;;;1.20;;
21305;SDS011;10812;51.838;5.838;2023-09-19T15:44:19;3.60;;;1.00;;
21305;SDS011;10812;51.838;5.838;2023-09-19T15:46:47;4.72;;;1.13;;
21305;SDS011;10812;51.838;5.838;2023-09-19T15:49:15;4.82;;;1.23;;
21305;SDS011;10812;51.838;5.838;2023-09-19T15:51:43;4.75;;;1.48;;
21305;SDS011;10812;51.838;5.838;2023-09-19T15:54:12;4.85;;;1.38;;
21305;SDS011;10812;51.838;5.838;2023-09-19T15:56:41;3.33;;;1.35;;
21305;SDS011;10812;51.838;5.838;2023-09-19T15:59:09;4.25;;;2.17;;
21305;SDS011;10812;51.838;5.838;2023-09-19T16:01:40;4.07;;;1.65;;
21305;SDS011;10812;51.838;5.838;2023-09-19T16:04:09;2.50;;;1.40;;
21305;SDS011;10812;51.838;5.838;2023-09-19T16:06:38;4.55;;;1.10;;
21305;SDS011;10812;51.838;5.838;2023-09-19T16:09:08;1.55;;;1.10;;
21305;SDS011;10812;51.838;5.838;2023-09-19T16:11:37;1.70;;;1.10;;
21305;SDS011;10812;51.838;5.838;2023-09-19T16:14:05;2.17;;;1.20;;
21305;SDS011;10812;51.838;5.838;2023-09-19T16:16:34;3.13;;;1.38;;
21305;SDS011;10812;51.838;5.838;2023-09-19T16:19:04;3.85;;;0.90;;
21305;SDS011;10812;51.838;5.838;2023-09-19T16:21:37;3.40;;;1.60;;
21305;SDS011;10812;51.838;5.838;2023-09-19T16:24:07;6.07;;;1.10;;
21305;SDS011;10812;51.838;5.838;2023-09-19T16:26:37;1.92;;;0.85;;
21305;SDS011;10812;51.838;5.838;2023-09-19T16:29:05;3.97;;;1.10;;
21305;SDS011;10812;51.838;5.838;2023-09-19T16:31:34;4.10;;;1.25;;
21305;SDS011;10812;51.838;5.838;2023-09-19T16:34:03;3.38;;;1.27;;
21305;SDS011;10812;51.838;5.838;2023-09-19T16:36:31;2.40;;;1.15;;
21305;SDS011;10812;51.838;5.838;2023-09-19T16:39:00;1.92;;;0.90;;
21305;SDS011;10812;51.838;5.838;2023-09-19T16:41:29;3.90;;;1.48;;
21305;SDS011;10812;51.838;5.838;2023-09-19T16:43:58;3.63;;;1.10;;
21305;SDS011;10812;51.838;5.838;2023-09-19T16:46:26;3.50;;;1.00;;
21305;SDS011;10812;51.838;5.838;2023-09-19T16:48:54;4.63;;;1.33;;
21305;SDS011;10812;51.838;5.838;2023-09-19T16:51:30;3.47;;;1.02;;
21305;SDS011;10812;51.838;5.838;2023-09-19T16:53:59;1.90;;;1.10;;
21305;SDS011;10812;51.838;5.838;2023-09-19T16:56:28;3.22;;;1.00;;
21305;SDS011;10812;51.838;5.838;2023-09-19T16:58:59;2.80;;;1.40;;
21305;SDS011;10812;51.838;5.838;2023-09-19T17:01:31;4.35;;;1.40;;
21305;SDS011;10812;51.838;5.838;2023-09-19T17:03:59;4.45;;;1.15;;
21305;SDS011;10812;51.838;5.838;2023-09-19T17:06:31;4.38;;;1.17;;
21305;SDS011;10812;51.838;5.838;2023-09-19T17:08:59;6.22;;;1.25;;
21305;SDS011;10812;51.838;5.838;2023-09-19T17:11:28;2.33;;;1.15;;
21305;SDS011;10812;51.838;5.838;2023-09-19T17:13:56;2.10;;;1.25;;
21305;SDS011;10812;51.838;5.838;2023-09-19T17:16:24;2.85;;;1.38;;
21305;SDS011;10812;51.838;5.838;2023-09-19T17:18:56;3.90;;;1.13;;
21305;SDS011;10812;51.838;5.838;2023-09-19T17:21:25;4.97;;;1.20;;
21305;SDS011;10812;51.838;5.838;2023-09-19T17:23:55;1.55;;;0.80;;
21305;SDS011;10812;51.838;5.838;2023-09-19T17:26:25;2.95;;;1.48;;
21305;SDS011;10812;51.838;5.838;2023-09-19T17:28:54;5.13;;;1.40;;
21305;SDS011;10812;51.838;5.838;2023-09-19T17:31:24;3.20;;;1.10;;
21305;SDS011;10812;51.838;5.838;2023-09-19T17:33:55;4.55;;;1.40;;
21305;SDS011;10812;51.838;5.838;2023-09-19T17:36:23;4.63;;;1.52;;
21305;SDS011;10812;51.838;5.838;2023-09-19T17:38:54;3.47;;;1.40;;
21305;SDS011;10812;51.838;5.838;2023-09-19T17:41:24;3.15;;;1.38;;
21305;SDS011;10812;51.838;5.838;2023-09-19T17:43:53;4.03;;;1.30;;
21305;SDS011;10812;51.838;5.838;2023-09-19T17:46:23;7.88;;;1.55;;
21305;SDS011;10812;51.838;5.838;2023-09-19T17:48:53;3.88;;;1.50;;
21305;SDS011;10812;51.838;5.838;2023-09-19T17:51:22;3.83;;;1.33;;
21305;SDS011;10812;51.838;5.838;2023-09-19T17:53:51;2.88;;;1.20;;
21305;SDS011;10812;51.838;5.838;2023-09-19T17:56:21;3.03;;;1.55;;
21305;SDS011;10812;51.838;5.838;2023-09-19T17:58:50;4.10;;;1.42;;
21305;SDS011;10812;51.838;5.838;2023-09-19T18:01:21;2.85;;;1.08;;
21305;SDS011;10812;51.838;5.838;2023-09-19T18:03:52;6.05;;;1.40;;
21305;SDS011;10812;51.838;5.838;2023-09-19T18:06:25;2.53;;;1.10;;
21305;SDS011;10812;51.838;5.838;2023-09-19T18:08:54;3.45;;;1.40;;
21305;SDS011;10812;51.838;5.838;2023-09-19T18:11:24;3.55;;;1.23;;
21305;SDS011;10812;51.838;5.838;2023-09-19T18:13:55;2.50;;;1.08;;
21305;SDS011;10812;51.838;5.838;2023-09-19T18:16:25;4.00;;;1.30;;
21305;SDS011;10812;51.838;5.838;2023-09-19T18:18:57;4.50;;;1.40;;
21305;SDS011;10812;51.838;5.838;2023-09-19T18:21:26;3.40;;;1.38;;
21305;SDS011;10812;51.838;5.838;2023-09-19T18:23:55;3.83;;;1.40;;
21305;SDS011;10812;51.838;5.838;2023-09-19T18:26:25;6.53;;;1.70;;
21305;SDS011;10812;51.838;5.838;2023-09-19T18:28:54;4.10;;;1.23;;
21305;SDS011;10812;51.838;5.838;2023-09-19T18:31:23;3.38;;;2.00;;
21305;SDS011;10812;51.838;5.838;2023-09-19T18:33:51;4.70;;;1.50;;
21305;SDS011;10812;51.838;5.838;2023-09-19T18:36:20;3.40;;;1.33;;
21305;SDS011;10812;51.838;5.838;2023-09-19T18:38:48;3.95;;;1.45;;
21305;SDS011;10812;51.838;5.838;2023-09-19T18:41:17;1.95;;;1.20;;
21305;SDS011;10812;51.838;5.838;2023-09-19T18:43:47;2.70;;;1.33;;
21305;SDS011;10812;51.838;5.838;2023-09-19T18:46:16;3.05;;;1.30;;
21305;SDS011;10812;51.838;5.838;2023-09-19T18:48:44;6.22;;;1.85;;
21305;SDS011;10812;51.838;5.838;2023-09-19T18:51:14;2.75;;;1.30;;
21305;SDS011;10812;51.838;5.838;2023-09-19T18:53:44;3.05;;;1.63;;
21305;SDS011;10812;51.838;5.838;2023-09-19T18:56:33;5.22;;;1.60;;
21305;SDS011;10812;51.838;5.838;2023-09-19T18:59:02;4.60;;;1.70;;
21305;SDS011;10812;51.838;5.838;2023-09-19T19:01:31;6.43;;;1.95;;
21305;SDS011;10812;51.838;5.838;2023-09-19T19:04:00;3.15;;;1.45;;
21305;SDS011;10812;51.838;5.838;2023-09-19T19:06:28;4.93;;;2.15;;
21305;SDS011;10812;51.838;5.838;2023-09-19T19:08:56;3.28;;;1.60;;
21305;SDS011;10812;51.838;5.838;2023-09-19T19:11:25;4.18;;;1.65;;
21305;SDS011;10812;51.838;5.838;2023-09-19T19:13:56;3.53;;;1.40;;
21305;SDS011;10812;51.838;5.838;2023-09-19T19:16:26;3.33;;;1.30;;
21305;SDS011;10812;51.838;5.838;2023-09-19T19:18:57;4.55;;;1.60;;
21305;SDS011;10812;51.838;5.838;2023-09-19T19:21:25;3.22;;;1.50;;
21305;SDS011;10812;51.838;5.838;2023-09-19T19:23:54;4.15;;;1.20;;
21305;SDS011;10812;51.838;5.838;2023-09-19T19:26:22;2.72;;;1.15;;
21305;SDS011;10812;51.838;5.838;2023-09-19T19:28:50;4.75;;;1.40;;
21305;SDS011;10812;51.838;5.838;2023-09-19T19:31:18;2.83;;;1.35;;
21305;SDS011;10812;51.838;5.838;2023-09-19T19:33:51;3.42;;;1.50;;
21305;SDS011;10812;51.838;5.838;2023-09-19T19:36:20;5.03;;;1.30;;
21305;SDS011;10812;51.838;5.838;2023-09-19T19:38:49;3.53;;;1.58;;
21305;SDS011;10812;51.838;5.838;2023-09-19T19:41:18;3.20;;;1.85;;
21305;SDS011;10812;51.838;5.838;2023-09-19T19:43:46;4.65;;;1.50;;
21305;SDS011;10812;51.838;5.838;2023-09-19T19:46:15;4.05;;;1.60;;
21305;SDS011;10812;51.838;5.838;2023-09-19T19:48:47;3.55;;;2.00;;
21305;SDS011;10812;51.838;5.838;2023-09-19T19:51:17;4.55;;;1.60;;
21305;SDS011;10812;51.838;5.838;2023-09-19T19:53:45;3.75;;;1.48;;
21305;SDS011;10812;51.838;5.838;2023-09-19T19:56:13;3.95;;;1.40;;
21305;SDS011;10812;51.838;5.838;2023-09-19T19:58:42;5.10;;;1.60;;
21305;SDS011;10812;51.838;5.838;2023-09-19T20:01:10;5.85;;;1.70;;
21305;SDS011;10812;51.838;5.838;2023-09-19T20:03:38;4.75;;;1.65;;
21305;SDS011;10812;51.838;5.838;2023-09-19T20:06:06;3.08;;;1.42;;